CYMX/YMX METAR and TAF weather

Enter ICAO airport designator
Station Type Date Time Source
CYMX METAR 2019/04/18 20:00 UTC NOAA

CYMX 182000Z 14006KT 25SM SCT078 BKN100 OVC230 15/03 A2968 RMK AC4AS3CI1 PRESFR SLP054 DENSITY ALT 700FT


Station Type Date Time Source
CYMX Decoded METAR 2019/04/18 20:00 UTC NOAA

Montreal / Mirabel, Canada (CYMX) 45-41N 074-02W
Apr 18, 2019 - 04:00 PM EDT / 2019.04.18 2000 UTC
Wind: from the SE (140 degrees) at 7 MPH (6 KT):0
Visibility: 25 mile(s):0
Sky conditions: overcast
Temperature: 59 F (15 C)
Dew Point: 37 F (3 C)
Relative Humidity: 44%
Pressure (altimeter): 29.68 in. Hg (1005 hPa)
Pressure tendency: falling rapidly
ob: CYMX 182000Z 14006KT 25SM SCT078 BKN100 OVC230 15/03 A2968 RMK AC4AS3CI1 PRESFR SLP054 DENSITY ALT 700FT
cycle: 20

Station Type Date Time Source
CYMX TAF 2019/04/18 18:42 UTC NOAA

TAF CYMX 181739Z 1818/1918 13006KT P6SM BKN050 BKN160
FM182300 17010KT P6SM -SHRA OVC040
BECMG 1904/1906 22006KT
FM191200 26006KT 5SM -RA BR SCT008 OVC020
FM191500 02008KT 4SM -RA BR BKN008 OVC020
RMK NXT FCST BY 190000Z

Example: see airport list